Time;durP1;ratioP1;P1;durP2;ratioP2;P2;SDS_P1;SDS_P2;PMS_P1;PMS_P2;Temp;Humidity;BMP_temperature;BMP_pressure;BME280_temperature;BME280_humidity;BME280_pressure;Samples;Min_cycle;Max_cycle;Signal;HPM_P1;HPM_P2
2023/01/01 00:00:07;;;;;;;122.33;62.87;;;;;;;6.78;100.00;95891.66;5112223;28;20700;-53
2023/01/01 00:02:32;;;;;;;125.60;63.00;;;;;;;6.75;100.00;95887.56;5093505;28;20192;-58
2023/01/01 00:04:58;;;;;;;121.10;61.53;;;;;;;6.89;100.00;95891.13;5111881;28;20219;-57
2023/01/01 00:07:24;;;;;;;114.20;59.83;;;;;;;6.94;100.00;95905.16;5112122;28;20575;-57
2023/01/01 00:12:33;;;;;;;81.93;45.33;;;;;;;6.93;100.00;95931.31;5112479;28;20194;-55
2023/01/01 00:14:59;;;;;;;95.07;49.93;;;;;;;7.01;100.00;95936.81;5111785;28;20223;-53
2023/01/01 00:17:24;;;;;;;43.97;26.50;;;;;;;7.03;100.00;95965.34;5112021;28;20187;-57
2023/01/01 00:19:50;;;;;;;69.17;39.60;;;;;;;6.91;100.00;95957.59;5112031;28;20308;-54
2023/01/01 00:22:15;;;;;;;43.87;24.23;;;;;;;6.88;100.00;95965.31;5111813;28;20211;-57
2023/01/01 00:24:40;;;;;;;78.93;43.37;;;;;;;6.88;100.00;95945.09;5111674;28;20569;-55
2023/01/01 00:27:06;;;;;;;93.00;51.53;;;;;;;7.00;100.00;95939.41;5111893;28;20266;-56
2023/01/01 00:29:31;;;;;;;75.23;42.70;;;;;;;7.04;100.00;95959.41;5111724;28;20242;-56
2023/01/01 00:31:57;;;;;;;88.63;47.33;;;;;;;6.86;100.00;95940.13;5111795;28;20195;-53
2023/01/01 00:34:22;;;;;;;84.90;48.40;;;;;;;6.84;100.00;95930.97;5111659;28;20211;-53
2023/01/01 00:36:48;;;;;;;99.17;52.57;;;;;;;6.94;100.00;95937.19;5111821;28;20191;-55
2023/01/01 00:39:13;;;;;;;96.70;52.67;;;;;;;6.89;100.00;95926.53;5111826;28;20628;-57
2023/01/01 00:41:38;;;;;;;103.13;55.13;;;;;;;7.04;100.00;95946.78;5111570;28;20240;-57
2023/01/01 00:44:04;;;;;;;89.53;47.07;;;;;;;7.15;100.00;95976.59;5111640;28;20187;-53
2023/01/01 00:46:29;;;;;;;58.60;34.60;;;;;;;6.95;100.00;95982.63;5111493;28;20571;-53
2023/01/01 00:48:55;;;;;;;34.77;19.07;;;;;;;6.69;100.00;95980.53;5111414;28;20210;-57
2023/01/01 00:51:20;;;;;;;30.27;17.30;;;;;;;6.65;100.00;95974.81;5111412;28;20240;-53
2023/01/01 00:53:46;;;;;;;27.83;15.23;;;;;;;6.43;100.00;95951.50;5111340;28;20211;-56
2023/01/01 00:56:11;;;;;;;22.10;12.00;;;;;;;6.45;100.00;95957.28;5111312;28;20203;-53
2023/01/01 00:58:37;;;;;;;19.93;12.37;;;;;;;6.27;100.00;95949.75;5111474;28;20236;-54
2023/01/01 01:01:02;;;;;;;18.70;11.27;;;;;;;6.01;100.00;95933.31;5111478;28;20215;-54
2023/01/01 01:03:28;;;;;;;17.43;10.20;;;;;;;5.98;100.00;95910.72;5111273;28;20310;-53
2023/01/01 01:05:59;;;;;;;15.10;9.03;;;;;;;5.84;100.00;95908.03;5111381;28;20227;-55
2023/01/01 01:08:26;;;;;;;13.87;8.87;;;;;;;5.70;100.00;95880.88;5111545;28;20218;-55
2023/01/01 01:10:53;;;;;;;12.80;8.27;;;;;;;5.39;100.00;95840.31;5111205;28;20214;-54
2023/01/01 01:13:19;;;;;;;13.67;8.80;;;;;;;5.42;100.00;95847.72;5111145;28;20714;-54
2023/01/01 01:15:44;;;;;;;12.93;8.63;;;;;;;5.29;100.00;95840.78;5111087;28;20316;-53
2023/01/01 01:18:10;;;;;;;17.87;9.33;;;;;;;5.33;100.00;95852.38;5111041;28;20239;-52
2023/01/01 01:20:36;;;;;;;14.27;8.23;;;;;;;5.30;100.00;95853.31;5092451;28;20226;-54
2023/01/01 01:23:01;;;;;;;16.10;8.37;;;;;;;5.30;100.00;95853.31;5110892;28;20178;-55
2023/01/01 01:25:27;;;;;;;14.33;9.10;;;;;;;5.31;100.00;95851.63;5111474;28;20666;-53
2023/01/01 01:27:52;;;;;;;15.00;9.27;;;;;;;5.37;100.00;95853.88;5110947;28;20328;-55
2023/01/01 01:30:17;;;;;;;13.00;8.30;;;;;;;5.47;100.00;95855.91;5111068;28;20225;-53
2023/01/01 01:32:43;;;;;;;15.13;9.17;;;;;;;5.41;100.00;95858.72;5110980;28;20578;-52
2023/01/01 01:35:09;;;;;;;12.63;8.23;;;;;;;5.35;100.00;95853.94;5110790;28;20221;-53
2023/01/01 01:37:34;;;;;;;13.37;8.97;;;;;;;5.54;100.00;95867.34;5110948;28;20227;-56
2023/01/01 01:40:00;;;;;;;15.33;9.47;;;;;;;5.65;100.00;95880.28;5111018;28;20333;-52
2023/01/01 01:42:25;;;;;;;17.23;9.13;;;;;;;5.68;100.00;95895.28;5110829;28;20198;-54
2023/01/01 01:44:59;;;;;;;15.33;8.53;;;;;;;5.82;100.00;95910.59;5111035;28;20298;-56
2023/01/01 01:47:30;;;;;;;10.90;7.70;;;;;;;5.86;100.00;95918.88;5110799;28;20258;-52
2023/01/01 01:50:19;;;;;;;16.70;9.17;;;;;;;5.89;100.00;95917.03;5111166;28;20218;-53
2023/01/01 01:53:07;;;;;;;14.20;9.03;;;;;;;5.78;100.00;95905.75;5095504;28;20205;-53
2023/01/01 01:55:38;;;;;;;17.90;9.47;;;;;;;5.69;100.00;95894.41;5098447;28;20712;-53
2023/01/01 01:58:07;;;;;;;18.50;9.47;;;;;;;5.68;100.00;95891.91;5114398;28;20184;-55
2023/01/01 02:00:33;;;;;;;20.90;9.87;;;;;;;5.73;100.00;95905.16;5095866;28;20221;-55
2023/01/01 02:03:06;;;;;;;22.93;12.03;;;;;;;5.75;100.00;95906.72;5114076;28;20281;-56
2023/01/01 02:05:34;;;;;;;23.63;12.27;;;;;;;5.79;100.00;95912.44;5114577;28;20247;-54
2023/01/01 02:08:00;;;;;;;22.17;13.17;;;;;;;5.85;100.00;95912.19;5113969;28;20197;-53
2023/01/01 02:10:27;;;;;;;22.20;13.13;;;;;;;5.94;100.00;95926.91;5114279;28;20225;-52
2023/01/01 02:12:52;;;;;;;28.77;15.10;;;;;;;5.94;100.00;95925.19;5114026;28;20582;-53
2023/01/01 02:15:18;;;;;;;32.17;16.83;;;;;;;6.06;100.00;95949.03;5114145;28;20215;-53
2023/01/01 02:18:08;;;;;;;34.03;15.93;;;;;;;6.10;100.00;95954.78;5113542;28;20267;-54
2023/01/01 02:20:36;;;;;;;28.10;15.33;;;;;;;6.08;100.00;95944.75;5114022;28;20211;-54
2023/01/01 02:23:08;;;;;;;23.83;14.00;;;;;;;6.14;100.00;95957.06;5113865;28;20205;-53
2023/01/01 02:26:06;;;;;;;19.83;12.53;;;;;;;5.97;100.00;95953.72;5114142;28;20234;-56
2023/01/01 02:28:52;;;;;;;14.70;9.80;;;;;;;5.73;100.00;95925.34;5113659;28;20207;-53
2023/01/01 02:31:25;;;;;;;14.83;10.33;;;;;;;5.66;100.00;95924.78;5113820;28;20682;-54
2023/01/01 02:33:56;;;;;;;12.93;8.87;;;;;;;5.46;100.00;95896.31;5113822;28;20293;-54
2023/01/01 02:36:24;;;;;;;17.17;9.23;;;;;;;5.29;100.00;95868.53;5113704;28;20190;-56
2023/01/01 02:38:53;;;;;;;16.97;10.90;;;;;;;5.42;100.00;95884.72;5113507;28;20274;-56
2023/01/01 02:41:23;;;;;;;16.23;10.13;;;;;;;5.51;100.00;95892.72;5113639;28;20196;-57
2023/01/01 02:43:50;;;;;;;16.23;9.60;;;;;;;5.40;100.00;95873.88;5095185;28;20554;-56
2023/01/01 02:46:15;;;;;;;15.27;10.00;;;;;;;5.54;100.00;95890.03;5113372;28;20694;-56
2023/01/01 02:48:46;;;;;;;17.60;10.77;;;;;;;5.65;100.00;95915.59;5113282;28;20195;-55
2023/01/01 02:51:23;;;;;;;18.93;11.00;;;;;;;5.63;100.00;95921.59;5113222;28;20220;-52
2023/01/01 02:54:01;;;;;;;24.43;12.17;;;;;;;5.61;100.00;95910.75;5113180;28;20195;-56
2023/01/01 02:56:37;;;;;;;24.40;14.10;;;;;;;5.72;100.00;95913.59;5113302;28;20328;-53
2023/01/01 03:02:32;;;;;;;24.57;13.40;;;;;;;5.69;100.00;95911.22;5113191;28;20244;-52
2023/01/01 03:05:18;;;;;;;26.10;14.03;;;;;;;5.74;100.00;95916.88;5113188;28;20258;-54
2023/01/01 03:08:12;;;;;;;27.73;15.80;;;;;;;5.90;100.00;95933.78;5113220;28;20189;-59
2023/01/01 03:10:49;;;;;;;29.03;16.23;;;;;;;5.80;100.00;95917.41;5113517;28;20222;-57
2023/01/01 03:13:47;;;;;;;31.53;15.33;;;;;;;5.75;100.00;95916.00;5113059;28;20195;-53
2023/01/01 03:16:28;;;;;;;25.10;15.60;;;;;;;5.79;100.00;95917.50;5113153;28;20226;-52
2023/01/01 03:19:11;;;;;;;25.07;14.40;;;;;;;5.87;100.00;95916.28;5112905;28;20282;-53
2023/01/01 03:21:46;;;;;;;27.50;15.87;;;;;;;5.89;100.00;95921.25;5112985;28;20195;-57
2023/01/01 03:24:19;;;;;;;28.47;16.03;;;;;;;5.95;100.00;95920.97;5113009;28;20624;-52
2023/01/01 03:26:49;;;;;;;25.47;14.63;;;;;;;6.00;100.00;95926.59;5113022;28;20233;-56
2023/01/01 03:29:15;;;;;;;23.70;14.13;;;;;;;6.07;100.00;95957.44;5112739;28;20258;-53
2023/01/01 03:31:44;;;;;;;27.50;14.20;;;;;;;6.10;100.00;95972.47;5094374;28;20198;-56
2023/01/01 03:34:20;;;;;;;23.27;13.77;;;;;;;5.83;100.00;95939.16;5112524;28;20194;-53
2023/01/01 03:36:52;;;;;;;23.87;15.23;;;;;;;5.70;100.00;95880.06;5112896;28;20694;-56
2023/01/01 03:39:37;;;;;;;31.07;15.00;;;;;;;5.66;100.00;95908.84;5082092;22;20234;-55
2023/01/01 03:42:20;;;;;;;28.87;14.73;;;;;;;5.63;100.00;95911.50;5072239;28;20218;-53
2023/01/01 03:45:00;;;;;;;29.50;16.63;;;;;;;5.54;100.00;95890.03;5071860;28;20696;-55
2023/01/01 03:47:27;;;;;;;17.97;10.20;;;;;;;5.25;100.00;95861.97;5072262;28;20231;-52
2023/01/01 03:49:52;;;;;;;18.10;10.83;;;;;;;5.16;100.00;95854.81;5071837;28;20761;-55
2023/01/01 03:52:50;;;;;;;15.57;9.00;;;;;;;5.26;100.00;95882.06;5071942;28;20614;-53
2023/01/01 03:55:35;;;;;;;14.77;9.33;;;;;;;5.05;100.00;95862.84;5063495;28;20301;-54
2023/01/01 03:58:09;;;;;;;18.40;10.63;;;;;;;5.11;100.00;95860.88;5071907;28;20234;-56
2023/01/01 04:00:45;;;;;;;14.83;8.67;;;;;;;4.96;100.00;95858.22;5071763;28;20294;-53
2023/01/01 04:03:29;;;;;;;15.13;8.87;;;;;;;5.03;100.00;95870.47;5071000;28;20570;-54
2023/01/01 04:05:55;;;;;;;15.07;8.63;;;;;;;4.84;100.00;95857.06;5071579;28;20231;-52
2023/01/01 04:08:21;;;;;;;15.10;8.30;;;;;;;4.72;100.00;95839.13;5071841;28;20278;-55
2023/01/01 04:10:55;;;;;;;13.37;7.97;;;;;;;4.62;100.00;95841.22;5071580;28;20779;-52
2023/01/01 04:13:21;;;;;;;15.67;8.43;;;;;;;4.58;100.00;95837.22;5071541;28;20189;-53
2023/01/01 04:15:46;;;;;;;15.20;8.90;;;;;;;4.51;100.00;95843.38;5071141;28;20203;-53
2023/01/01 04:18:11;;;;;;;14.80;8.97;;;;;;;4.34;100.00;95844.97;5071393;28;20252;-55
2023/01/01 04:20:37;;;;;;;13.40;9.00;;;;;;;4.32;100.00;95857.63;5071637;28;20207;-54
2023/01/01 04:23:02;;;;;;;15.13;9.33;;;;;;;4.53;100.00;95866.78;5071372;28;20251;-52
2023/01/01 04:25:29;;;;;;;11.90;7.90;;;;;;;4.51;100.00;95858.47;5071268;28;20213;-52
2023/01/01 04:27:54;;;;;;;14.70;8.40;;;;;;;4.69;100.00;95877.03;5071298;28;20199;-53
2023/01/01 04:30:20;;;;;;;16.43;9.43;;;;;;;4.75;100.00;95887.66;5071240;28;20216;-53
2023/01/01 04:32:45;;;;;;;17.10;9.50;;;;;;;4.74;100.00;95881.00;5071476;28;20269;-53
2023/01/01 04:35:13;;;;;;;16.13;10.00;;;;;;;4.81;100.00;95876.50;5071179;28;20343;-56
2023/01/01 04:37:41;;;;;;;20.13;10.87;;;;;;;4.92;100.00;95899.53;5071218;28;20200;-56
2023/01/01 04:40:08;;;;;;;20.53;11.17;;;;;;;4.92;100.00;95895.34;5070902;28;20220;-52
2023/01/01 04:42:40;;;;;;;24.03;12.30;;;;;;;4.90;100.00;95898.78;5071097;28;20203;-55
2023/01/01 04:45:06;;;;;;;21.77;12.67;;;;;;;4.77;100.00;95885.91;5070820;28;20214;-53
2023/01/01 04:47:32;;;;;;;22.70;12.87;;;;;;;4.83;100.00;95894.88;5071259;28;20200;-54
2023/01/01 04:49:57;;;;;;;22.73;11.47;;;;;;;4.79;100.00;95904.28;5070880;28;20217;-53
2023/01/01 04:52:23;;;;;;;23.30;11.77;;;;;;;4.66;100.00;95893.09;5071134;28;20630;-56
2023/01/01 04:54:48;;;;;;;20.67;11.87;;;;;;;4.70;100.00;95889.56;5071009;28;20756;-57
2023/01/01 04:57:14;;;;;;;18.50;11.10;;;;;;;4.63;100.00;95890.69;5071146;28;20199;-54
2023/01/01 04:59:40;;;;;;;22.97;13.07;;;;;;;4.37;100.00;95872.50;5070874;28;20198;-56
2023/01/01 05:02:06;;;;;;;20.33;11.13;;;;;;;4.45;100.00;95870.50;5071008;28;20298;-55
2023/01/01 05:04:31;;;;;;;25.83;13.07;;;;;;;4.36;100.00;95868.38;5070653;28;20211;-56
2023/01/01 05:06:56;;;;;;;25.00;14.90;;;;;;;4.41;100.00;95881.56;5052785;28;20574;-55
2023/01/01 05:09:22;;;;;;;24.17;13.00;;;;;;;4.30;100.00;95877.00;5070773;28;20610;-51
2023/01/01 05:11:47;;;;;;;22.07;12.50;;;;;;;4.44;100.00;95879.75;5070610;28;20278;-55
2023/01/01 05:14:13;;;;;;;20.73;11.60;;;;;;;4.49;100.00;95880.38;5070373;28;20222;-55
2023/01/01 05:16:39;;;;;;;17.83;10.63;;;;;;;4.48;100.00;95888.84;5070666;28;20661;-56
2023/01/01 05:19:06;;;;;;;15.07;9.07;;;;;;;4.53;100.00;95896.16;5070421;28;20243;-52
2023/01/01 05:21:36;;;;;;;14.73;8.13;;;;;;;4.51;100.00;95897.94;5070431;28;20214;-52
2023/01/01 05:24:04;;;;;;;13.90;7.40;;;;;;;4.53;100.00;95898.69;5070645;28;20216;-54
2023/01/01 05:26:33;;;;;;;11.57;8.07;;;;;;;4.50;100.00;95907.22;5071788;28;20201;-53
2023/01/01 05:28:59;;;;;;;13.17;7.03;;;;;;;4.31;100.00;95878.63;5056065;28;20185;-52
2023/01/01 05:31:28;;;;;;;11.27;6.93;;;;;;;4.28;100.00;95881.28;5074058;28;20188;-53
2023/01/01 05:33:53;;;;;;;11.43;7.67;;;;;;;4.32;100.00;95881.97;5073968;28;20185;-52
2023/01/01 05:36:25;;;;;;;11.90;7.77;;;;;;;4.30;100.00;95897.13;5073899;28;20199;-56
2023/01/01 05:38:51;;;;;;;13.30;7.27;;;;;;;4.29;100.00;95887.94;5074350;28;20266;-55
2023/01/01 05:41:18;;;;;;;10.90;7.37;;;;;;;4.32;100.00;95892.03;5073916;28;20580;-55
2023/01/01 05:43:44;;;;;;;10.03;6.70;;;;;;;4.51;100.00;95901.28;5073688;28;20198;-55
2023/01/01 05:46:13;;;;;;;12.70;7.53;;;;;;;4.64;100.00;95907.47;5073822;28;20240;-54
2023/01/01 05:48:39;;;;;;;12.20;7.27;;;;;;;4.65;100.00;95916.63;5074009;28;20671;-56
2023/01/01 05:51:10;;;;;;;14.27;7.80;;;;;;;4.73;100.00;95938.97;5073632;28;20235;-55
2023/01/01 05:53:36;;;;;;;13.43;8.03;;;;;;;4.70;100.00;95944.16;5073807;28;20276;-54
2023/01/01 05:56:02;;;;;;;12.17;7.50;;;;;;;4.52;100.00;95922.25;5073761;28;20298;-56
2023/01/01 05:58:30;;;;;;;16.90;7.97;;;;;;;4.46;100.00;95905.69;5073508;28;20253;-56
2023/01/01 06:00:56;;;;;;;14.47;8.57;;;;;;;4.35;100.00;95890.19;5073485;28;20214;-55
2023/01/01 06:03:22;;;;;;;11.27;7.50;;;;;;;4.38;100.00;95906.88;5073726;28;20204;-56
2023/01/01 06:05:47;;;;;;;13.90;8.17;;;;;;;4.47;100.00;95904.81;5073669;28;20586;-55
2023/01/01 06:08:13;;;;;;;14.60;8.63;;;;;;;4.46;100.00;95908.22;5073724;28;20690;-55
2023/01/01 06:10:38;;;;;;;13.60;7.83;;;;;;;4.65;100.00;95921.66;5073439;28;20205;-57
2023/01/01 06:13:04;;;;;;;13.10;8.90;;;;;;;4.76;100.00;95926.28;5073539;28;20222;-56
2023/01/01 06:15:30;;;;;;;13.80;8.07;;;;;;;4.85;100.00;95935.94;5073321;28;20213;-53
2023/01/01 06:17:57;;;;;;;12.30;8.40;;;;;;;4.81;100.00;95947.03;5055359;28;20305;-52
2023/01/01 06:20:23;;;;;;;12.60;7.87;;;;;;;4.88;100.00;95949.25;5073272;28;20233;-54
2023/01/01 06:22:48;;;;;;;16.63;9.03;;;;;;;4.95;100.00;95935.50;5073118;28;20199;-56
2023/01/01 06:25:14;;;;;;;17.27;8.67;;;;;;;5.10;100.00;95949.97;5073081;28;20222;-56
2023/01/01 06:27:39;;;;;;;19.57;10.07;;;;;;;5.26;100.00;95969.47;5073301;28;20206;-53
2023/01/01 06:30:06;;;;;;;20.40;9.87;;;;;;;5.41;100.00;95992.34;5073174;28;20754;-52
2023/01/01 06:32:31;;;;;;;20.13;10.03;;;;;;;5.35;100.00;95995.13;5073457;28;20677;-53
2023/01/01 06:34:57;;;;;;;19.93;11.83;;;;;;;5.39;100.00;95989.06;5073087;28;20212;-54
2023/01/01 06:37:22;;;;;;;24.27;12.63;;;;;;;5.65;100.00;96008.09;5072825;28;20199;-57
2023/01/01 06:39:47;;;;;;;30.87;16.63;;;;;;;5.47;100.00;95992.09;5072936;28;20241;-56
2023/01/01 06:42:13;;;;;;;38.27;20.83;;;;;;;5.52;100.00;96009.50;5073394;28;20202;-55
2023/01/01 06:44:38;;;;;;;40.37;20.90;;;;;;;5.36;100.00;96000.97;5072989;28;20207;-57
2023/01/01 06:47:04;;;;;;;33.43;19.57;;;;;;;5.42;100.00;95993.97;5073237;28;20244;-54
2023/01/01 06:49:29;;;;;;;36.50;20.60;;;;;;;5.27;100.00;95976.16;5072956;28;20200;-51
2023/01/01 06:51:55;;;;;;;30.80;16.00;;;;;;;5.44;100.00;96003.97;5055405;28;20188;-56
2023/01/01 06:54:20;;;;;;;33.43;18.70;;;;;;;5.65;100.00;96019.03;5072775;28;20586;-56
2023/01/01 06:56:45;;;;;;;22.27;11.77;;;;;;;5.87;100.00;96057.59;5072661;28;20264;-53
2023/01/01 06:59:11;;;;;;;13.80;8.70;;;;;;;5.76;100.00;96047.09;5072410;28;20183;-52
2023/01/01 07:01:40;;;;;;;14.00;8.10;;;;;;;5.82;100.00;96058.63;5072720;28;20176;-53
2023/01/01 07:04:09;;;;;;;15.00;8.70;;;;;;;5.70;100.00;96027.19;5072449;28;20195;-53
2023/01/01 07:06:35;;;;;;;14.27;8.30;;;;;;;6.01;100.00;96069.59;5072599;28;20603;-52
2023/01/01 07:09:01;;;;;;;21.50;11.57;;;;;;;5.98;100.00;96056.31;5072322;28;20239;-52
2023/01/01 07:11:27;;;;;;;26.63;16.50;;;;;;;5.80;100.00;96048.63;5072867;28;20567;-55
2023/01/01 07:13:53;;;;;;;43.50;23.70;;;;;;;5.32;100.00;95991.91;5072858;28;20627;-53
2023/01/01 07:16:19;;;;;;;45.90;25.47;;;;;;;5.32;100.00;95979.28;5072567;28;20198;-55
2023/01/01 07:18:45;;;;;;;48.07;26.63;;;;;;;5.71;100.00;96028.03;5072235;28;20549;-53
2023/01/01 07:21:27;;;;;;;47.80;25.60;;;;;;;6.10;100.00;96060.81;5072374;28;20219;-53
2023/01/01 07:23:55;;;;;;;38.07;21.47;;;;;;;6.14;100.00;96057.25;5072304;28;20279;-53
2023/01/01 07:26:27;;;;;;;32.30;19.27;;;;;;;6.43;100.00;96095.44;5072341;28;20703;-55
2023/01/01 07:28:53;;;;;;;26.37;14.60;;;;;;;6.40;100.00;96077.91;5072396;28;20254;-57
2023/01/01 07:31:19;;;;;;;23.60;13.03;;;;;;;6.49;100.00;96094.34;5072331;28;20670;-56
2023/01/01 07:33:44;;;;;;;21.47;11.67;;;;;;;6.74;100.00;96112.56;5072206;28;20195;-56
2023/01/01 07:36:10;;;;;;;14.33;10.10;;;;;;;6.69;100.00;96082.44;5071948;28;20334;-56
2023/01/01 07:38:35;;;;;;;15.43;10.07;;;;;;;6.96;100.00;96119.94;5072322;28;20291;-55
2023/01/01 07:41:01;;;;;;;18.63;10.17;;;;;;;7.14;100.00;96144.34;5054172;28;20217;-56
2023/01/01 07:43:26;;;;;;;18.37;11.43;;;;;;;7.13;100.00;96102.28;5072237;28;20193;-56
2023/01/01 07:45:51;;;;;;;18.60;11.60;;;;;;;7.54;100.00;96149.13;5071936;28;20676;-57
2023/01/01 07:48:17;;;;;;;25.90;11.77;;;;;;;7.79;100.00;96161.41;5071717;28;20199;-57
2023/01/01 07:50:42;;;;;;;20.73;11.50;;;;;;;7.87;100.00;96155.09;5071406;28;20247;-53
2023/01/01 07:53:08;;;;;;;20.00;12.27;;;;;;;8.01;100.00;96161.97;5072201;28;20193;-57
2023/01/01 07:55:34;;;;;;;20.73;13.67;;;;;;;8.14;100.00;96179.00;5072325;28;20208;-56
2023/01/01 07:58:00;;;;;;;31.40;18.60;;;;;;;8.25;100.00;96181.84;5071676;28;20254;-56
2023/01/01 08:00:26;;;;;;;32.77;19.57;;;;;;;8.38;100.00;96190.44;5071812;28;20670;-56
2023/01/01 08:02:51;;;;;;;41.63;23.20;;;;;;;8.62;100.00;96187.53;5072117;28;20220;-57
2023/01/01 08:05:17;;;;;;;45.67;27.30;;;;;;;8.67;100.00;96188.94;5071576;28;20213;-53
2023/01/01 08:07:47;;;;;;;56.57;31.77;;;;;;;8.97;100.00;96238.03;5071392;28;20706;-53
2023/01/01 08:10:13;;;;;;;60.87;35.23;;;;;;;9.10;100.00;96261.03;5071651;28;20205;-54
2023/01/01 08:12:39;;;;;;;62.57;34.13;;;;;;;9.02;100.00;96258.91;5071722;28;20199;-55
2023/01/01 08:15:05;;;;;;;64.70;35.17;;;;;;;9.10;100.00;96250.88;5071484;28;20208;-53
2023/01/01 08:17:30;;;;;;;67.03;36.60;;;;;;;9.23;100.00;96260.28;5071534;28;20669;-53
2023/01/01 08:19:56;;;;;;;60.10;36.83;;;;;;;9.29;100.00;96254.88;5071427;28;20197;-54
2023/01/01 08:22:21;;;;;;;62.87;35.33;;;;;;;9.61;100.00;96270.09;5071486;28;20286;-55
2023/01/01 08:24:47;;;;;;;61.13;37.27;;;;;;;9.42;100.00;96260.13;5071228;28;20270;-57
2023/01/01 08:27:13;;;;;;;61.30;36.60;;;;;;;9.89;100.00;96295.59;5071503;28;20215;-53
2023/01/01 08:29:39;;;;;;;61.57;37.10;;;;;;;10.22;99.01;96346.28;5071189;28;20575;-57
2023/01/01 08:32:04;;;;;;;58.83;38.57;;;;;;;10.03;100.00;96311.72;5071200;28;20185;-54
2023/01/01 08:34:29;;;;;;;65.00;38.60;;;;;;;10.06;100.00;96281.03;5071124;28;20209;-56
2023/01/01 08:36:55;;;;;;;68.50;40.60;;;;;;;10.51;97.53;96351.34;5071132;28;20235;-56
2023/01/01 08:39:21;;;;;;;64.50;37.67;;;;;;;10.57;96.91;96357.81;5071219;28;20220;-54
2023/01/01 08:41:46;;;;;;;64.63;38.93;;;;;;;10.68;96.46;96347.84;5070978;28;20177;-53
2023/01/01 08:44:12;;;;;;;65.17;37.97;;;;;;;10.86;96.32;96344.22;5070909;28;20220;-57
2023/01/01 08:46:37;;;;;;;60.63;38.00;;;;;;;10.96;95.31;96365.69;5070934;28;20176;-56
2023/01/01 08:49:02;;;;;;;60.17;37.07;;;;;;;10.99;95.08;96360.41;5071139;28;20650;-54
2023/01/01 08:51:28;;;;;;;61.00;38.13;;;;;;;10.93;94.33;96365.84;5071324;28;20180;-53
2023/01/01 08:53:53;;;;;;;65.97;38.50;;;;;;;10.97;94.44;96357.13;5071013;28;20195;-56
2023/01/01 08:56:19;;;;;;;56.33;35.50;;;;;;;11.14;93.93;96351.88;5070758;28;20200;-55
2023/01/01 08:58:44;;;;;;;61.33;36.93;;;;;;;11.29;93.80;96355.22;5070881;28;20204;-55
2023/01/01 09:01:10;;;;;;;55.57;36.13;;;;;;;11.14;94.54;96330.69;5070745;28;20285;-55
2023/01/01 09:03:36;;;;;;;58.67;35.67;;;;;;;11.10;94.71;96313.97;5070663;28;20197;-55
2023/01/01 09:06:01;;;;;;;56.20;35.80;;;;;;;11.21;94.96;96314.16;5070636;28;20223;-57
2023/01/01 09:08:27;;;;;;;56.40;35.97;;;;;;;11.57;93.28;96348.34;5071078;28;20185;-53
2023/01/01 09:10:57;;;;;;;55.07;36.07;;;;;;;11.66;93.00;96358.00;5070490;28;20235;-57
2023/01/01 09:13:24;;;;;;;53.23;34.47;;;;;;;11.90;92.77;96357.41;5070731;28;20234;-57
2023/01/01 09:15:49;;;;;;;52.47;34.23;;;;;;;12.09;91.30;96363.81;5070582;28;20632;-53
2023/01/01 09:18:15;;;;;;;51.13;32.83;;;;;;;12.41;91.31;96369.38;5070788;28;20188;-55
2023/01/01 09:20:40;;;;;;;57.57;36.33;;;;;;;12.83;88.12;96432.13;5068974;28;20277;-53
2023/01/01 09:23:06;;;;;;;63.40;36.43;;;;;;;12.62;88.95;96391.78;5069603;28;20184;-54
2023/01/01 09:25:33;;;;;;;55.43;36.67;;;;;;;12.55;90.02;96352.28;5070637;28;20279;-56
2023/01/01 09:28:05;;;;;;;51.53;35.03;;;;;;;12.97;88.86;96389.47;5070659;28;20215;-52
2023/01/01 09:30:31;;;;;;;60.50;37.30;;;;;;;12.93;86.54;96370.16;5052587;28;20300;-53
2023/01/01 09:32:57;;;;;;;57.00;34.83;;;;;;;13.26;70.88;96398.59;5070291;28;20646;-54
2023/01/01 09:35:22;;;;;;;59.03;35.87;;;;;;;13.36;68.68;96416.66;5070148;28;20212;-56
2023/01/01 09:37:48;;;;;;;58.70;34.47;;;;;;;13.47;68.17;96406.56;5070478;28;20225;-57
2023/01/01 09:40:31;;;;;;;51.37;34.03;;;;;;;13.71;67.95;96404.88;5070403;28;20213;-53
2023/01/01 09:43:08;;;;;;;46.67;32.03;;;;;;;14.13;66.91;96430.00;5070438;28;20196;-58
2023/01/01 09:45:51;;;;;;;48.23;32.87;;;;;;;13.87;67.69;96402.06;5070212;28;20211;-55
2023/01/01 09:48:17;;;;;;;51.83;33.63;;;;;;;13.93;67.23;96401.63;5070731;28;20189;-56
2023/01/01 09:50:45;;;;;;;52.83;35.63;;;;;;;14.09;66.38;96409.88;5070290;28;20288;-54
2023/01/01 09:53:30;;;;;;;53.27;34.70;;;;;;;14.64;64.45;96453.69;5070220;28;20189;-54
2023/01/01 09:55:58;;;;;;;51.00;34.23;;;;;;;14.61;64.33;96438.53;5070016;28;20205;-58
2023/01/01 09:58:33;;;;;;;50.47;31.53;;;;;;;14.81;64.21;96425.09;5070418;28;20210;-56
2023/01/01 10:01:14;;;;;;;52.37;32.67;;;;;;;14.90;63.22;96462.03;5070206;28;20212;-55
2023/01/01 10:03:48;;;;;;;49.90;32.10;;;;;;;14.92;63.93;96414.91;5070384;28;20196;-58
2023/01/01 10:06:30;;;;;;;51.53;32.23;;;;;;;14.99;63.44;96400.69;5069801;28;20323;-58
2023/01/01 10:09:01;;;;;;;51.45;31.58;;;;;;;15.07;63.58;96388.13;5070236;28;20184;-52
2023/01/01 10:11:54;;;;;;;50.55;32.55;;;;;;;15.22;62.90;96401.53;5069831;28;20276;-54
2023/01/01 10:14:31;;;;;;;51.05;32.85;;;;;;;15.41;63.36;96388.16;5073593;28;20217;-55
2023/01/01 10:17:01;;;;;;;45.33;30.95;;;;;;;15.45;61.75;96420.34;5073225;28;20188;-53
2023/01/01 10:19:48;;;;;;;48.92;30.85;;;;;;;15.71;60.82;96414.88;5073154;28;20758;-54
2023/01/01 10:22:30;;;;;;;47.57;32.83;;;;;;;15.82;59.87;96432.00;5073357;28;20633;-54
2023/01/01 10:25:00;;;;;;;46.08;30.40;;;;;;;15.98;59.44;96423.94;5072934;28;20269;-55
2023/01/01 10:27:43;;;;;;;42.63;31.35;;;;;;;15.85;58.83;96419.75;5073004;28;20189;-53
2023/01/01 10:30:15;;;;;;;47.17;30.38;;;;;;;15.88;59.36;96398.16;5086861;22;20380;-54
2023/01/01 10:32:42;;;;;;;46.42;32.50;;;;;;;15.93;59.52;96373.81;5093367;28;20234;-55
2023/01/01 10:35:30;;;;;;;41.92;28.73;;;;;;;15.82;59.07;96373.00;5093321;28;20200;-55
2023/01/01 10:37:57;;;;;;;46.00;29.42;;;;;;;16.13;59.79;96359.41;5093423;28;20657;-54
2023/01/01 10:40:28;;;;;;;49.35;30.58;;;;;;;16.05;59.23;96358.38;5093385;28;20231;-54
2023/01/01 10:42:56;;;;;;;42.25;28.58;;;;;;;16.27;59.03;96359.13;5093019;28;20227;-54
2023/01/01 10:45:40;;;;;;;43.35;27.55;;;;;;;16.31;58.91;96345.09;5093103;28;20222;-59
2023/01/01 10:48:11;;;;;;;46.42;25.52;;;;;;;16.26;58.34;96354.13;5093308;28;20192;-58
2023/01/01 10:50:50;;;;;;;40.17;29.10;;;;;;;16.15;58.44;96338.75;5092808;28;20220;-58
2023/01/01 10:53:38;;;;;;;37.60;26.58;;;;;;;16.15;58.67;96323.34;5093386;28;20191;-58
2023/01/01 10:56:06;;;;;;;39.13;27.92;;;;;;;16.19;58.83;96317.03;5093177;28;20709;-54
2023/01/01 10:58:37;;;;;;;42.40;26.92;;;;;;;16.20;59.40;96304.06;5092923;28;20188;-56
2023/01/01 11:01:06;;;;;;;39.92;26.63;;;;;;;16.28;59.18;96299.13;5092831;28;20694;-58
2023/01/01 11:03:32;;;;;;;39.97;26.70;;;;;;;16.45;59.20;96295.19;5092779;28;20277;-59
2023/01/01 11:06:20;;;;;;;45.20;26.63;;;;;;;16.51;58.19;96316.09;5074902;28;20247;-58
2023/01/01 11:08:51;;;;;;;39.92;26.17;;;;;;;16.66;57.46;96316.59;5093040;28;20207;-55
2023/01/01 11:11:29;;;;;;;37.72;25.65;;;;;;;16.84;57.23;96322.78;5092696;28;20609;-58
2023/01/01 11:13:58;;;;;;;42.40;27.02;;;;;;;16.86;57.75;96309.81;5092728;28;20609;-54
2023/01/01 11:16:26;;;;;;;40.55;26.83;;;;;;;16.99;57.90;96300.94;5092730;28;20662;-56
2023/01/01 11:18:58;;;;;;;41.53;27.38;;;;;;;16.85;59.00;96274.81;5092675;28;20188;-60
2023/01/01 11:21:24;;;;;;;38.83;26.70;;;;;;;17.05;58.46;96274.72;5092882;28;20184;-53
2023/01/01 11:24:07;;;;;;;37.15;26.23;;;;;;;17.07;56.99;96313.16;5092460;28;20187;-58
2023/01/01 11:26:33;;;;;;;38.10;26.60;;;;;;;17.09;56.88;96306.16;5092527;28;20211;-53
2023/01/01 11:29:04;;;;;;;40.15;27.45;;;;;;;17.16;56.85;96304.66;5092499;28;20641;-54
2023/01/01 11:31:36;;;;;;;38.72;26.00;;;;;;;17.08;56.83;96301.94;5092595;28;20184;-58
2023/01/01 11:34:03;;;;;;;40.13;26.33;;;;;;;16.88;57.62;96272.78;5092509;28;20200;-58